createdAt,value
2022-10-16T07:06:52.615Z,10.80
2022-10-16T07:38:31.162Z,11.90
2022-10-16T08:04:24.076Z,12.80
2022-10-16T08:26:21.982Z,13.80
2022-10-16T08:54:43.554Z,15.30
2022-10-16T08:59:38.095Z,15.60
2022-10-16T09:04:57.079Z,15.90
2022-10-16T09:26:00.444Z,17.00
2022-10-16T09:30:54.864Z,17.30
2022-10-16T09:35:51.091Z,17.70
2022-10-16T09:40:45.279Z,18.00
2022-10-16T09:45:40.506Z,18.50
2022-10-16T09:50:34.409Z,18.90
2022-10-16T09:55:29.019Z,19.20
2022-10-16T10:00:33.320Z,19.60
2022-10-16T10:05:31.285Z,19.90
2022-10-16T10:10:27.371Z,20.20
2022-10-16T10:15:23.907Z,20.50
2022-10-16T10:20:25.865Z,20.80
2022-10-16T10:25:39.381Z,21.30
2022-10-16T10:30:43.762Z,21.80
2022-10-16T10:35:45.469Z,22.20
2022-10-16T10:41:11.004Z,22.50
2022-10-16T10:46:07.827Z,22.50
2022-10-16T10:51:06.748Z,22.80
2022-10-16T10:56:10.582Z,23.30
2022-10-16T11:01:10.887Z,23.60
2022-10-16T11:06:09.799Z,24.10
2022-10-16T11:11:07.442Z,24.40
2022-10-16T11:16:16.318Z,24.70
2022-10-16T11:21:18.535Z,24.90
2022-10-16T11:26:17.910Z,25.00
2022-10-16T11:31:19.301Z,25.30
2022-10-16T11:36:22.726Z,25.60
2022-10-16T11:41:25.264Z,25.80
2022-10-16T11:46:22.928Z,25.90
2022-10-16T11:51:28.670Z,26.00
2022-10-16T11:56:24.350Z,26.20
2022-10-16T12:01:28.916Z,26.50
2022-10-16T12:06:38.739Z,26.60
2022-10-16T12:11:38.121Z,26.80
2022-10-16T12:16:31.797Z,26.90
2022-10-16T12:21:34.695Z,27.10
2022-10-16T12:26:34.819Z,27.10
2022-10-16T12:31:49.645Z,27.30
2022-10-16T12:36:55.258Z,27.50
2022-10-16T12:41:52.188Z,27.70
2022-10-16T12:46:46.899Z,27.80
2022-10-16T12:51:41.333Z,28.30
2022-10-16T12:56:47.930Z,28.90
2022-10-16T13:01:54.930Z,29.50
2022-10-16T13:06:59.919Z,30.10
2022-10-16T13:12:18.758Z,30.60
2022-10-16T13:17:20.891Z,31.60
2022-10-16T13:22:23.553Z,31.80
2022-10-16T13:27:29.007Z,31.90
2022-10-16T13:32:23.628Z,32.60
2022-10-16T13:37:22.244Z,32.70
2022-10-16T13:42:27.019Z,32.80
2022-10-16T13:47:26.265Z,33.10
2022-10-16T13:52:22.456Z,33.40
2022-10-16T13:57:27.155Z,32.80
2022-10-16T14:02:29.199Z,32.90
2022-10-16T14:07:27.743Z,32.90
2022-10-16T14:12:28.097Z,33.00
2022-10-16T14:17:24.893Z,33.30
2022-10-16T14:22:31.826Z,33.60
2022-10-16T14:27:31.980Z,33.60
2022-10-16T14:32:30.263Z,33.20
2022-10-16T14:37:28.255Z,33.00
2022-10-16T14:42:25.273Z,33.00
2022-10-16T14:47:25.559Z,32.80
2022-10-16T14:52:20.371Z,32.30
2022-10-16T14:57:20.559Z,31.80
2022-10-16T15:02:25.156Z,29.50
2022-10-16T15:07:18.819Z,26.40
2022-10-16T15:12:12.789Z,24.70
2022-10-16T15:17:07.004Z,23.80
2022-10-16T15:22:02.775Z,23.20
2022-10-16T15:26:56.714Z,22.50
2022-10-16T15:31:50.692Z,22.10
2022-10-16T15:36:45.108Z,21.90
2022-10-16T15:46:36.322Z,21.40
2022-10-16T15:51:31.209Z,20.80
2022-10-16T15:56:26.569Z,20.40
2022-10-16T16:01:21.826Z,20.00
2022-10-16T16:06:17.223Z,19.90
2022-10-16T16:11:13.407Z,19.80
2022-10-16T16:16:09.724Z,19.50
2022-10-16T16:21:05.128Z,19.30
2022-10-16T16:26:10.976Z,19.20
2022-10-16T16:31:05.050Z,19.00
2022-10-16T16:36:00.771Z,18.80
2022-10-16T16:40:56.853Z,18.50
2022-10-16T16:45:51.150Z,18.30
2022-10-16T16:50:44.929Z,18.20
2022-10-16T16:55:39.084Z,18.00
2022-10-16T17:00:35.253Z,17.70
2022-10-16T17:05:29.061Z,17.60
2022-10-16T17:10:23.043Z,17.40
2022-10-16T17:15:16.672Z,17.20
2022-10-16T17:20:12.858Z,17.00
2022-10-16T17:25:08.065Z,16.80
2022-10-16T17:30:01.896Z,16.60
2022-10-16T17:34:55.512Z,16.50
